createdAt,value
2023-06-22T00:00:08.302Z,95.73
2023-06-22T00:01:08.303Z,95.64
2023-06-22T00:02:08.290Z,95.84
2023-06-22T00:03:08.368Z,95.13
2023-06-22T00:04:08.283Z,95.23
2023-06-22T00:05:08.251Z,95.03
2023-06-22T00:06:08.245Z,95.39
2023-06-22T00:07:08.211Z,95.49
2023-06-22T00:08:08.207Z,95.03
2023-06-22T00:09:08.205Z,94.33
2023-06-22T00:10:09.180Z,94.68
2023-06-22T00:11:08.179Z,94.68
2023-06-22T00:12:08.158Z,94.68
2023-06-22T00:13:08.141Z,94.48
2023-06-22T00:14:08.130Z,93.78
2023-06-22T00:15:08.154Z,94.08
2023-06-22T00:16:08.126Z,93.98
2023-06-22T00:17:08.101Z,93.88
2023-06-22T00:18:08.132Z,94.08
2023-06-22T00:19:08.116Z,94.18
2023-06-22T00:20:08.068Z,94.18
2023-06-22T00:21:08.075Z,94.38
2023-06-22T00:22:08.035Z,93.98
2023-06-22T00:23:08.035Z,94.63
2023-06-22T00:24:08.012Z,94.63
2023-06-22T00:25:08.018Z,95.43
2023-06-22T00:26:07.988Z,94.53
2023-06-22T00:27:07.983Z,94.43
2023-06-22T00:28:08.025Z,94.23
2023-06-22T00:29:08.079Z,94.23
2023-06-22T00:30:07.956Z,93.93
2023-06-22T00:31:07.966Z,93.93
2023-06-22T00:32:07.925Z,93.62
2023-06-22T00:33:07.933Z,93.82
2023-06-22T00:34:07.905Z,93.93
2023-06-22T00:35:07.903Z,94.02
2023-06-22T00:36:07.891Z,94.43
2023-06-22T00:37:07.876Z,95.23
2023-06-22T00:38:07.875Z,94.67
2023-06-22T00:39:07.854Z,95.64
2023-06-22T00:40:07.851Z,95.07
2023-06-22T00:41:07.827Z,95.58
2023-06-22T00:42:07.817Z,95.78
2023-06-22T00:43:07.830Z,95.58
2023-06-22T00:44:07.828Z,95.48
2023-06-22T00:45:07.787Z,95.38
2023-06-22T00:46:07.762Z,95.28
2023-06-22T00:47:07.793Z,95.07
2023-06-22T00:48:07.785Z,95.68
2023-06-22T00:49:07.731Z,95.68
2023-06-22T00:50:07.726Z,95.78
2023-06-22T00:51:07.734Z,95.84
2023-06-22T00:52:07.696Z,95.88
2023-06-22T00:53:07.665Z,95.48
2023-06-22T00:54:08.721Z,95.18
2023-06-22T00:55:07.658Z,95.33
2023-06-22T00:56:07.654Z,95.18
2023-06-22T00:57:07.675Z,95.38
2023-06-22T00:58:07.637Z,95.78
2023-06-22T00:59:07.604Z,95.23
2023-06-22T01:00:07.616Z,95.73
2023-06-22T01:01:07.610Z,95.58
2023-06-22T01:02:07.629Z,97.03
2023-06-22T01:03:07.705Z,97.78
2023-06-22T01:04:07.688Z,98.29
2023-06-22T01:05:07.545Z,98.69
2023-06-22T01:06:07.544Z,98.49
2023-06-22T01:07:07.540Z,98.49
2023-06-22T01:08:07.501Z,98.54
2023-06-22T01:09:07.505Z,98.39
2023-06-22T01:10:07.490Z,98.09
2023-06-22T01:11:07.490Z,98.39
2023-06-22T01:12:07.492Z,98.09
2023-06-22T01:13:07.470Z,98.54
2023-06-22T01:14:07.451Z,98.79
2023-06-22T01:15:07.438Z,98.59
2023-06-22T01:16:07.431Z,98.59
2023-06-22T01:17:07.417Z,98.49
2023-06-22T01:18:07.426Z,98.79
2023-06-22T01:19:07.393Z,99.40
2023-06-22T01:20:07.388Z,99.50
2023-06-22T01:21:07.364Z,99.90
2023-06-22T01:22:07.351Z,99.45
2023-06-22T01:23:07.349Z,99.70
2023-06-22T01:24:07.344Z,99.35
2023-06-22T01:25:07.332Z,98.85
2023-06-22T01:26:07.298Z,99.15
2023-06-22T01:27:07.294Z,99.25
2023-06-22T01:28:07.280Z,99.30
2023-06-22T01:29:07.295Z,99.99
2023-06-22T01:30:07.253Z,99.99
2023-06-22T01:31:07.280Z,99.85
2023-06-22T01:32:09.337Z,99.99
2023-06-22T01:33:08.286Z,99.99
2023-06-22T01:34:07.280Z,99.99
2023-06-22T01:35:07.198Z,99.65
2023-06-22T01:36:07.217Z,99.51
2023-06-22T01:37:07.174Z,99.65
2023-06-22T01:38:07.171Z,99.85
2023-06-22T01:39:07.170Z,99.30
2023-06-22T01:40:07.214Z,99.71
2023-06-22T01:41:07.134Z,99.99
2023-06-22T01:42:07.127Z,99.71
2023-06-22T01:43:07.136Z,99.71
2023-06-22T01:44:07.112Z,99.71
2023-06-22T01:45:07.091Z,98.90
2023-06-22T01:46:07.078Z,99.20
2023-06-22T01:47:07.062Z,98.75
2023-06-22T01:48:07.121Z,99.35
2023-06-22T01:49:07.060Z,99.35
2023-06-22T01:50:07.042Z,98.75
2023-06-22T01:51:07.013Z,98.85
2023-06-22T01:52:07.016Z,98.80
2023-06-22T01:53:07.007Z,98.30
2023-06-22T01:54:07.018Z,97.80
2023-06-22T01:55:06.964Z,98.15
2023-06-22T01:56:06.961Z,97.99
2023-06-22T01:57:06.947Z,98.30
2023-06-22T01:58:06.959Z,98.65
2023-06-22T01:59:06.932Z,99.30
2023-06-22T02:00:06.933Z,99.40
2023-06-22T02:01:06.897Z,99.75
2023-06-22T02:02:06.965Z,99.75
2023-06-22T02:03:06.945Z,99.75
2023-06-22T02:04:07.029Z,99.99
2023-06-22T02:05:06.865Z,99.99
2023-06-22T02:06:06.856Z,99.75
2023-06-22T02:07:06.841Z,99.75
2023-06-22T02:08:06.829Z,99.85
2023-06-22T02:09:06.813Z,98.85
2023-06-22T02:10:06.805Z,99.45
2023-06-22T02:11:06.809Z,99.25
2023-06-22T02:12:06.771Z,98.74
2023-06-22T02:13:06.767Z,98.70
2023-06-22T02:14:06.764Z,98.74
2023-06-22T02:15:06.741Z,97.99
2023-06-22T02:16:06.729Z,98.14
2023-06-22T02:17:06.709Z,97.89
2023-06-22T02:18:06.760Z,97.69
2023-06-22T02:19:06.694Z,97.59
2023-06-22T02:20:06.688Z,97.09
2023-06-22T02:21:06.697Z,97.59
2023-06-22T02:22:06.662Z,97.39
2023-06-22T02:23:06.639Z,97.39
2023-06-22T02:24:06.642Z,96.74
2023-06-22T02:25:06.648Z,96.34
2023-06-22T02:26:06.619Z,96.14
2023-06-22T02:27:06.616Z,96.24
2023-06-22T02:28:06.607Z,96.24
2023-06-22T02:29:06.578Z,96.34
2023-06-22T02:30:06.589Z,96.24
2023-06-22T02:31:06.576Z,95.64
2023-06-22T02:32:06.544Z,95.73
2023-06-22T02:33:06.570Z,95.84
2023-06-22T02:34:06.538Z,95.84
2023-06-22T02:35:06.512Z,95.64
2023-06-22T02:36:06.567Z,95.73
2023-06-22T02:37:06.496Z,95.23
2023-06-22T02:38:06.472Z,95.13
2023-06-22T02:39:06.463Z,95.33
2023-06-22T02:40:06.455Z,95.09
2023-06-22T02:41:06.455Z,95.49
2023-06-22T02:42:06.438Z,95.29
2023-06-22T02:43:06.430Z,94.68
2023-06-22T02:44:06.414Z,94.38
2023-06-22T02:45:06.407Z,94.08
2023-06-22T02:46:06.406Z,94.08
2023-06-22T02:47:06.405Z,93.98
2023-06-22T02:48:06.396Z,94.08
2023-06-22T02:49:06.354Z,94.18
2023-06-22T02:50:06.345Z,93.88
2023-06-22T02:51:06.333Z,94.18
2023-06-22T02:52:06.328Z,94.18
2023-06-22T02:53:06.310Z,94.38
2023-06-22T02:54:06.383Z,94.64
2023-06-22T02:55:06.284Z,94.13
2023-06-22T02:56:06.289Z,94.13
2023-06-22T02:57:06.283Z,93.93
2023-06-22T02:58:06.258Z,94.04
2023-06-22T02:59:06.239Z,94.64
2023-06-22T03:00:06.240Z,94.24
2023-06-22T03:01:06.323Z,94.84
2023-06-22T03:02:06.194Z,95.04
2023-06-22T03:03:06.277Z,95.64
2023-06-22T03:04:06.321Z,95.40
2023-06-22T03:05:06.188Z,95.50
2023-06-22T03:06:06.175Z,95.44
2023-06-22T03:07:06.825Z,95.24
2023-06-22T03:08:06.130Z,95.44
2023-06-22T03:09:06.355Z,95.54
2023-06-22T03:10:06.112Z,95.95
2023-06-22T03:11:06.112Z,96.75
2023-06-22T03:12:06.080Z,97.30
2023-06-22T03:13:06.080Z,97.50
2023-06-22T03:14:06.062Z,98.15
2023-06-22T03:15:06.048Z,98.65
2023-06-22T03:16:06.052Z,99.90
2023-06-22T03:17:06.048Z,99.99
2023-06-22T03:18:06.088Z,99.99
2023-06-22T03:19:06.034Z,99.66
2023-06-22T03:20:05.999Z,99.99
2023-06-22T03:21:05.980Z,99.99
2023-06-22T03:22:05.979Z,99.99
2023-06-22T03:23:05.988Z,99.99
2023-06-22T03:24:05.938Z,99.99
2023-06-22T03:25:05.937Z,99.99
2023-06-22T03:26:05.930Z,99.99
2023-06-22T03:27:05.973Z,99.99
2023-06-22T03:28:05.903Z,99.99
2023-06-22T03:29:05.989Z,99.99
2023-06-22T03:30:05.881Z,99.99
2023-06-22T03:31:05.888Z,99.99
2023-06-22T03:32:05.969Z,99.99
2023-06-22T03:33:05.889Z,99.99
2023-06-22T03:34:05.861Z,99.99
2023-06-22T03:35:05.825Z,99.99
2023-06-22T03:36:05.876Z,99.99
2023-06-22T03:37:05.805Z,99.99
2023-06-22T03:38:05.828Z,99.99
2023-06-22T03:39:05.770Z,99.99
2023-06-22T03:40:05.786Z,99.66
2023-06-22T03:41:05.753Z,99.99
2023-06-22T03:42:05.760Z,99.99
2023-06-22T03:43:05.734Z,99.99
2023-06-22T03:44:05.734Z,99.99
2023-06-22T03:45:05.725Z,99.99
2023-06-22T03:46:05.769Z,99.99
2023-06-22T03:47:05.683Z,99.99
2023-06-22T03:48:05.732Z,99.99
2023-06-22T03:49:05.832Z,99.99
2023-06-22T03:50:05.725Z,99.99
2023-06-22T03:51:05.666Z,99.99
2023-06-22T03:52:05.637Z,99.99
2023-06-22T03:53:05.626Z,99.99
2023-06-22T03:54:05.655Z,99.99
2023-06-22T03:55:05.605Z,99.99
2023-06-22T03:56:05.598Z,99.99
2023-06-22T03:57:05.590Z,99.99
2023-06-22T03:58:05.573Z,99.99
2023-06-22T03:59:05.550Z,99.99
2023-06-22T04:00:05.586Z,99.99
2023-06-22T04:01:05.533Z,99.99
2023-06-22T04:02:05.507Z,99.99
2023-06-22T04:03:05.533Z,99.99
2023-06-22T04:04:05.636Z,99.99
2023-06-22T04:05:05.584Z,99.99
2023-06-22T04:06:05.495Z,99.99
2023-06-22T04:07:05.460Z,99.99
2023-06-22T04:08:05.450Z,99.99
2023-06-22T04:09:05.439Z,99.99
2023-06-22T04:10:05.406Z,99.99
2023-06-22T04:11:05.437Z,99.99
2023-06-22T04:12:05.381Z,99.99
2023-06-22T04:13:05.389Z,99.99
2023-06-22T04:14:05.377Z,99.99
2023-06-22T04:15:05.366Z,99.99
2023-06-22T04:16:05.380Z,99.26
2023-06-22T04:17:05.336Z,99.66
2023-06-22T04:18:05.361Z,99.66
2023-06-22T04:19:05.306Z,98.91
2023-06-22T04:20:05.334Z,99.11
2023-06-22T04:21:05.295Z,99.01
2023-06-22T04:22:05.276Z,99.61
2023-06-22T04:23:05.278Z,99.31
2023-06-22T04:24:05.270Z,99.71
2023-06-22T04:25:05.242Z,99.61
2023-06-22T04:26:05.239Z,99.71
2023-06-22T04:27:05.246Z,98.96
2023-06-22T04:28:05.229Z,99.21
2023-06-22T04:29:05.201Z,99.01
2023-06-22T04:30:05.186Z,98.91
2023-06-22T04:31:05.258Z,99.41
2023-06-22T04:32:05.169Z,99.41
2023-06-22T04:33:05.202Z,99.71
2023-06-22T04:34:05.149Z,99.99
2023-06-22T04:35:05.137Z,99.91
2023-06-22T04:36:05.118Z,99.99
2023-06-22T04:37:05.160Z,99.99
2023-06-22T04:38:05.090Z,99.99
2023-06-22T04:39:05.078Z,99.99
2023-06-22T04:40:05.128Z,99.99
2023-06-22T04:41:05.083Z,99.99
2023-06-22T04:42:05.072Z,99.99
2023-06-22T04:43:05.063Z,99.99
2023-06-22T04:44:05.037Z,99.99
2023-06-22T04:45:05.023Z,99.99
2023-06-22T04:46:05.076Z,99.99
2023-06-22T04:47:05.116Z,99.99
2023-06-22T04:48:05.041Z,99.99
2023-06-22T04:49:04.979Z,99.99
2023-06-22T04:50:04.961Z,99.99
2023-06-22T04:51:04.978Z,99.99
2023-06-22T04:52:04.921Z,99.99
2023-06-22T04:53:04.939Z,99.99
2023-06-22T04:54:04.919Z,99.99
2023-06-22T04:55:04.925Z,99.99
2023-06-22T04:56:04.881Z,99.99
2023-06-22T04:57:04.879Z,99.99
2023-06-22T04:58:04.896Z,99.99
2023-06-22T04:59:04.869Z,99.99
2023-06-22T05:00:04.852Z,99.99
2023-06-22T05:01:04.838Z,99.99
2023-06-22T05:02:04.847Z,99.99
2023-06-22T05:03:18.662Z,99.99
2023-06-22T05:04:07.067Z,99.36
2023-06-22T05:05:04.872Z,99.11
2023-06-22T05:06:04.797Z,99.32
2023-06-22T05:07:04.776Z,98.77
2023-06-22T05:08:04.799Z,98.26
2023-06-22T05:09:04.763Z,98.22
2023-06-22T05:10:04.741Z,97.72
2023-06-22T05:11:05.974Z,97.57
2023-06-22T05:12:07.127Z,96.97
2023-06-22T05:13:04.687Z,96.62
2023-06-22T05:14:04.694Z,95.72
2023-06-22T05:15:04.672Z,95.12
2023-06-22T05:16:04.755Z,95.07
2023-06-22T05:17:04.676Z,93.47
2023-06-22T05:18:04.722Z,92.77
2023-06-22T05:19:04.806Z,93.02
2023-06-22T05:20:04.639Z,91.62
2023-06-22T05:21:04.631Z,91.28
2023-06-22T05:22:04.613Z,90.58
2023-06-22T05:23:05.614Z,91.03
2023-06-22T05:24:04.580Z,90.73
2023-06-22T05:25:04.575Z,90.53
2023-06-22T05:26:04.585Z,89.59
2023-06-22T05:27:04.568Z,89.39
2023-06-22T05:28:04.552Z,88.75
2023-06-22T05:29:04.515Z,88.25
2023-06-22T05:30:04.513Z,89.05
2023-06-22T05:31:04.514Z,88.65
2023-06-22T05:32:04.494Z,88.15
2023-06-22T05:33:04.604Z,88.45
2023-06-22T05:34:04.507Z,87.71
2023-06-22T05:35:04.464Z,88.01
2023-06-22T05:36:04.479Z,88.51
2023-06-22T05:37:04.441Z,88.60
2023-06-22T05:38:04.415Z,87.41
2023-06-22T05:39:05.445Z,87.81
2023-06-22T05:40:04.395Z,87.61
2023-06-22T05:41:04.397Z,87.25
2023-06-22T05:42:04.376Z,87.51
2023-06-22T05:43:04.381Z,87.51
2023-06-22T05:44:04.379Z,88.45
2023-06-22T05:45:04.356Z,87.61
2023-06-22T05:46:04.329Z,87.35
2023-06-22T05:47:04.334Z,87.65
2023-06-22T05:48:04.432Z,87.75
2023-06-22T05:49:04.321Z,88.45
2023-06-22T05:50:04.323Z,88.55
2023-06-22T05:51:04.282Z,87.75
2023-06-22T05:52:04.300Z,87.39
2023-06-22T05:53:04.272Z,87.45
2023-06-22T05:54:04.244Z,87.85
2023-06-22T05:55:04.250Z,87.25
2023-06-22T05:56:05.224Z,87.35
2023-06-22T05:57:04.225Z,86.71
2023-06-22T05:58:04.230Z,86.01
2023-06-22T05:59:04.186Z,86.11
2023-06-22T06:00:04.190Z,85.17
2023-06-22T06:01:04.179Z,85.07
2023-06-22T06:02:04.192Z,84.57
2023-06-22T06:03:04.356Z,84.21
2023-06-22T06:04:04.184Z,84.61
2023-06-22T06:05:04.147Z,84.65
2023-06-22T06:06:04.123Z,86.23
2023-06-22T06:07:05.105Z,87.27
2023-06-22T06:08:04.138Z,88.71
2023-06-22T06:09:04.078Z,89.36
2023-06-22T06:10:04.073Z,90.70
2023-06-22T06:11:04.088Z,90.86
2023-06-22T06:12:04.056Z,90.70
2023-06-22T06:13:04.065Z,91.16
2023-06-22T06:14:04.024Z,91.56
2023-06-22T06:15:04.016Z,91.32
2023-06-22T06:16:04.017Z,90.52
2023-06-22T06:17:03.998Z,90.58
2023-06-22T06:18:04.033Z,90.28
2023-06-22T06:19:04.001Z,90.62
2023-06-22T06:20:03.966Z,90.82
2023-06-22T06:21:03.960Z,91.32
2023-06-22T06:22:03.942Z,91.27
2023-06-22T06:23:03.936Z,91.27
2023-06-22T06:24:03.919Z,90.96
2023-06-22T06:25:03.898Z,90.96
2023-06-22T06:26:03.909Z,91.47
2023-06-22T06:27:03.891Z,90.77
2023-06-22T06:28:03.868Z,91.31
2023-06-22T06:29:03.864Z,91.61
2023-06-22T06:30:03.900Z,91.47
2023-06-22T06:31:04.027Z,90.86
2023-06-22T06:32:04.027Z,91.01
2023-06-22T06:33:03.889Z,91.16
2023-06-22T06:34:03.853Z,91.27
2023-06-22T06:35:03.810Z,90.52
2023-06-22T06:36:03.808Z,90.22
2023-06-22T06:37:03.806Z,90.26
2023-06-22T06:38:03.852Z,89.52
2023-06-22T06:39:03.763Z,89.52
2023-06-22T06:40:03.766Z,89.12
2023-06-22T06:41:03.780Z,89.18
2023-06-22T06:42:03.747Z,88.83
2023-06-22T06:43:03.734Z,88.73
2023-06-22T06:44:03.716Z,86.79
2023-06-22T06:45:03.719Z,87.09
2023-06-22T06:46:03.798Z,87.09
2023-06-22T06:47:03.664Z,86.09
2023-06-22T06:48:03.754Z,85.99
2023-06-22T06:49:03.676Z,86.09
2023-06-22T06:50:03.662Z,85.99
2023-06-22T06:51:03.675Z,85.35
2023-06-22T06:52:03.618Z,85.25
2023-06-22T06:53:03.675Z,85.11
2023-06-22T06:54:03.711Z,84.27
2023-06-22T06:55:03.615Z,82.47
2023-06-22T06:56:03.595Z,82.28
2023-06-22T06:57:03.601Z,82.28
2023-06-22T06:58:03.705Z,82.34
2023-06-22T06:59:03.567Z,82.14
2023-06-22T07:00:03.544Z,81.84
2023-06-22T07:01:03.539Z,81.30
2023-06-22T07:02:03.563Z,81.10
2023-06-22T07:03:03.607Z,80.96
2023-06-22T07:04:03.531Z,80.26
2023-06-22T07:05:03.490Z,79.52
2023-06-22T07:06:03.492Z,78.97
2023-06-22T07:07:03.482Z,80.30
2023-06-22T07:08:03.458Z,81.20
2023-06-22T07:09:03.432Z,80.76
2023-06-22T07:10:05.525Z,80.16
2023-06-22T07:11:03.447Z,79.72
2023-06-22T07:12:03.558Z,79.36
2023-06-22T07:13:03.413Z,79.40
2023-06-22T07:14:03.397Z,79.70
2023-06-22T07:15:03.401Z,79.80
2023-06-22T07:16:03.365Z,79.10
2023-06-22T07:17:03.393Z,79.30
2023-06-22T07:18:03.393Z,80.44
2023-06-22T07:19:03.345Z,81.04
2023-06-22T07:20:03.355Z,80.60
2023-06-22T07:21:03.301Z,80.90
2023-06-22T07:22:03.333Z,80.50
2023-06-22T07:23:03.314Z,79.00
2023-06-22T07:24:03.317Z,79.36
2023-06-22T07:25:03.272Z,78.43
2023-06-22T07:26:03.310Z,77.93
2023-06-22T07:27:03.345Z,78.23
2023-06-22T07:28:03.409Z,77.97
2023-06-22T07:29:03.257Z,78.33
2023-06-22T07:30:03.215Z,78.53
2023-06-22T07:31:03.323Z,77.20
2023-06-22T07:32:03.211Z,78.53
2023-06-22T07:33:03.257Z,78.43
2023-06-22T07:34:03.219Z,79.33
2023-06-22T07:35:03.169Z,78.92
2023-06-22T07:36:03.153Z,78.13
2023-06-22T07:37:03.177Z,78.39
2023-06-22T07:38:06.056Z,79.09
2023-06-22T07:39:04.133Z,77.59
2023-06-22T07:40:03.142Z,79.09
2023-06-22T07:41:03.122Z,79.79
2023-06-22T07:42:03.110Z,79.13
2023-06-22T07:43:03.230Z,78.89
2023-06-22T07:44:03.095Z,77.46
2023-06-22T07:45:03.057Z,77.46
2023-06-22T07:46:04.045Z,77.56
2023-06-22T07:47:03.042Z,77.52
2023-06-22T07:48:03.133Z,77.72
2023-06-22T07:49:03.043Z,77.52
2023-06-22T07:50:03.028Z,77.58
2023-06-22T07:51:03.018Z,77.68
2023-06-22T07:52:04.477Z,77.34
2023-06-22T07:53:02.987Z,75.76
2023-06-22T07:54:02.955Z,75.59
2023-06-22T07:55:02.986Z,77.28
2023-06-22T07:56:02.983Z,77.58
2023-06-22T07:57:02.934Z,77.68
2023-06-22T07:58:02.973Z,77.38
2023-06-22T07:59:02.911Z,77.15
2023-06-22T08:00:02.896Z,75.76
2023-06-22T08:01:02.887Z,75.46
2023-06-22T08:02:02.963Z,75.36
2023-06-22T08:03:02.937Z,75.62
2023-06-22T08:04:02.932Z,75.49
2023-06-22T08:05:10.936Z,75.06
2023-06-22T08:06:04.835Z,75.22
2023-06-22T08:07:02.836Z,75.36
2023-06-22T08:08:02.861Z,75.52
2023-06-22T08:09:02.819Z,73.36
2023-06-22T08:10:02.806Z,73.07
2023-06-22T08:11:02.784Z,71.64
2023-06-22T08:12:02.777Z,72.63
2023-06-22T08:13:02.763Z,71.61
2023-06-22T08:14:02.888Z,71.11
2023-06-22T08:15:02.768Z,70.58
2023-06-22T08:16:02.716Z,70.91
2023-06-22T08:17:02.723Z,72.63
2023-06-22T08:18:02.739Z,72.63
2023-06-22T08:19:02.710Z,72.70
2023-06-22T08:20:02.705Z,70.98
2023-06-22T08:21:16.157Z,69.36
2023-06-22T08:22:02.682Z,69.06
2023-06-22T08:23:02.679Z,71.28
2023-06-22T08:24:02.658Z,71.54
2023-06-22T08:25:02.630Z,70.25
2023-06-22T08:26:02.605Z,68.10
2023-06-22T08:27:02.610Z,67.38
2023-06-22T08:28:03.608Z,66.46
2023-06-22T08:29:02.584Z,66.46
2023-06-22T08:30:02.584Z,66.46
2023-06-22T08:31:02.558Z,65.23
2023-06-22T08:32:02.629Z,65.20
2023-06-22T08:33:02.613Z,65.53
2023-06-22T08:34:02.542Z,67.38
2023-06-22T08:35:02.530Z,68.66
2023-06-22T08:36:02.545Z,68.24
2023-06-22T08:37:02.504Z,66.92
2023-06-22T08:38:02.490Z,67.25
2023-06-22T08:39:02.650Z,66.46
2023-06-22T08:40:02.553Z,65.44
2023-06-22T08:41:02.465Z,66.82
2023-06-22T08:42:02.438Z,66.82
2023-06-22T08:43:02.457Z,66.95
2023-06-22T08:44:02.432Z,68.40
2023-06-22T08:45:02.395Z,67.77
2023-06-22T08:46:02.432Z,66.88
2023-06-22T08:47:02.395Z,68.27
2023-06-22T08:48:02.446Z,68.50
2023-06-22T08:49:02.389Z,69.09
2023-06-22T08:50:03.358Z,71.54
2023-06-22T08:51:02.357Z,71.04
2023-06-22T08:52:02.357Z,68.99
2023-06-22T08:53:02.345Z,69.19
2023-06-22T08:54:02.328Z,70.68
2023-06-22T08:55:02.327Z,69.65
2023-06-22T08:56:02.292Z,69.06
2023-06-22T08:57:02.301Z,69.16
2023-06-22T08:58:02.301Z,68.90
2023-06-22T08:59:02.275Z,69.59
2023-06-22T09:00:02.255Z,68.76
2023-06-22T09:01:02.257Z,68.73
2023-06-22T09:02:02.283Z,69.23
2023-06-22T09:03:02.488Z,67.32
2023-06-22T09:04:02.280Z,66.29
2023-06-22T09:05:02.410Z,67.11
2023-06-22T09:06:02.239Z,67.11
2023-06-22T09:07:02.196Z,66.42
2023-06-22T09:08:02.177Z,67.21
2023-06-22T09:09:02.183Z,67.14
2023-06-22T09:10:04.203Z,67.35
2023-06-22T09:11:03.137Z,66.69
2023-06-22T09:12:02.139Z,68.10
2023-06-22T09:13:02.146Z,68.27
2023-06-22T09:14:02.150Z,69.09
2023-06-22T09:15:02.108Z,68.90
2023-06-22T09:16:02.090Z,71.41
2023-06-22T09:17:02.072Z,69.53
2023-06-22T09:18:02.096Z,69.69
2023-06-22T09:19:02.070Z,68.76
2023-06-22T09:20:02.053Z,69.06
2023-06-22T09:21:02.037Z,69.52
2023-06-22T09:22:02.048Z,68.13
2023-06-22T09:23:02.011Z,68.83
2023-06-22T09:24:02.005Z,68.57
2023-06-22T09:25:02.013Z,66.78
2023-06-22T09:26:01.997Z,66.85
2023-06-22T09:27:01.990Z,66.36
2023-06-22T09:28:01.978Z,65.05
2023-06-22T09:29:01.968Z,64.98
2023-06-22T09:30:01.940Z,66.36
2023-06-22T09:31:01.992Z,66.22
2023-06-22T09:32:02.175Z,68.04
2023-06-22T09:33:01.961Z,68.24
2023-06-22T09:34:01.901Z,68.20
2023-06-22T09:35:01.910Z,68.13
2023-06-22T09:36:01.889Z,68.63
2023-06-22T09:37:01.959Z,68.86
2023-06-22T09:38:01.901Z,69.12
2023-06-22T09:39:01.858Z,67.35
2023-06-22T09:40:01.860Z,68.01
2023-06-22T09:41:01.819Z,67.97
2023-06-22T09:42:01.835Z,66.88
2023-06-22T09:43:01.800Z,68.40
2023-06-22T09:44:01.786Z,66.78
2023-06-22T09:45:01.802Z,66.82
2023-06-22T09:46:01.772Z,68.04
2023-06-22T09:47:02.779Z,68.73
2023-06-22T09:48:01.800Z,68.20
2023-06-22T09:49:01.746Z,66.69
2023-06-22T09:50:01.808Z,66.56
2023-06-22T09:51:01.724Z,66.69
2023-06-22T09:52:01.714Z,67.28
2023-06-22T09:53:01.692Z,67.77
2023-06-22T09:54:01.691Z,67.15
2023-06-22T09:55:01.703Z,65.31
2023-06-22T09:56:01.652Z,64.62
2023-06-22T09:57:01.665Z,63.67
2023-06-22T09:58:01.655Z,62.71
2023-06-22T09:59:13.982Z,63.01
2023-06-22T10:00:03.621Z,64.09
2023-06-22T10:01:01.649Z,63.40
2023-06-22T10:02:01.692Z,63.63
2023-06-22T10:03:02.051Z,63.40
2023-06-22T10:04:01.931Z,62.98
2023-06-22T10:05:01.989Z,62.65
2023-06-22T10:06:01.663Z,62.72
2023-06-22T10:07:01.570Z,62.62
2023-06-22T10:08:01.553Z,62.40
2023-06-22T10:09:01.547Z,60.69
2023-06-22T10:10:01.520Z,63.06
2023-06-22T10:11:01.524Z,60.73
2023-06-22T10:12:01.512Z,58.47
2023-06-22T10:13:01.490Z,59.23
2023-06-22T10:14:01.504Z,59.42
2023-06-22T10:15:01.479Z,58.81
2023-06-22T10:16:01.462Z,57.46
2023-06-22T10:17:01.479Z,57.24
2023-06-22T10:18:01.507Z,56.42
2023-06-22T10:19:01.440Z,56.23
2023-06-22T10:20:01.426Z,55.27
2023-06-22T10:21:01.409Z,57.95
2023-06-22T10:22:01.408Z,56.68
2023-06-22T10:23:01.404Z,57.66
2023-06-22T10:24:01.377Z,56.18
2023-06-22T10:25:01.362Z,57.29
2023-06-22T10:26:01.384Z,56.28
2023-06-22T10:27:01.365Z,56.16
2023-06-22T10:28:01.350Z,55.61
2023-06-22T10:29:16.019Z,56.79
2023-06-22T10:30:03.338Z,55.88
2023-06-22T10:31:01.394Z,54.41
2023-06-22T10:32:01.334Z,54.70
2023-06-22T10:33:01.360Z,53.69
2023-06-22T10:34:01.292Z,54.28
2023-06-22T10:35:01.287Z,54.09
2023-06-22T10:36:01.276Z,54.06
2023-06-22T10:37:01.295Z,54.09
2023-06-22T10:38:01.255Z,54.48
2023-06-22T10:39:01.230Z,55.02
2023-06-22T10:40:01.236Z,56.05
2023-06-22T10:41:01.213Z,54.28
2023-06-22T10:42:01.222Z,56.92
2023-06-22T10:43:01.246Z,56.23
2023-06-22T10:44:01.204Z,55.44
2023-06-22T10:45:01.186Z,56.45
2023-06-22T10:46:01.168Z,56.58
2023-06-22T10:47:01.175Z,56.58
2023-06-22T10:48:01.235Z,55.99
2023-06-22T10:49:01.140Z,56.58
2023-06-22T10:50:01.140Z,55.99
2023-06-22T10:51:01.144Z,57.07
2023-06-22T10:52:01.117Z,56.55
2023-06-22T10:53:01.119Z,56.38
2023-06-22T10:54:01.175Z,56.97
2023-06-22T10:55:01.079Z,56.31
2023-06-22T10:56:01.357Z,55.62
2023-06-22T10:57:01.063Z,54.61
2023-06-22T10:58:01.062Z,54.52
2023-06-22T10:59:01.039Z,54.81
2023-06-22T11:00:01.079Z,54.12
2023-06-22T11:01:01.102Z,54.98
2023-06-22T11:02:01.054Z,53.58
2023-06-22T11:03:01.133Z,52.94
2023-06-22T11:04:01.170Z,51.64
2023-06-22T11:05:00.971Z,51.78
2023-06-22T11:06:00.986Z,49.58
2023-06-22T11:07:00.969Z,49.14
2023-06-22T11:08:00.967Z,48.14
2023-06-22T11:09:05.373Z,47.12
2023-06-22T11:10:02.944Z,45.85
2023-06-22T11:11:00.923Z,45.25
2023-06-22T11:12:00.988Z,45.32
2023-06-22T11:13:00.948Z,42.86
2023-06-22T11:14:00.908Z,43.52
2023-06-22T11:15:00.908Z,43.88
2023-06-22T11:16:00.882Z,44.34
2023-06-22T11:17:00.869Z,43.23
2023-06-22T11:18:00.936Z,42.43
2023-06-22T11:19:00.851Z,42.53
2023-06-22T11:20:00.853Z,42.94
2023-06-22T11:21:00.833Z,42.65
2023-06-22T11:22:00.823Z,42.11
2023-06-22T11:23:00.813Z,41.69
2023-06-22T11:24:00.815Z,40.89
2023-06-22T11:25:00.804Z,41.20
2023-06-22T11:26:00.776Z,42.10
2023-06-22T11:27:00.779Z,41.39
2023-06-22T11:28:00.763Z,41.28
2023-06-22T11:29:00.770Z,40.39
2023-06-22T11:30:00.773Z,39.76
2023-06-22T11:31:04.941Z,38.96
2023-06-22T11:32:01.809Z,38.17
2023-06-22T11:33:00.902Z,37.98
2023-06-22T11:34:00.703Z,38.48
2023-06-22T11:35:00.698Z,40.05
2023-06-22T11:36:00.687Z,38.99
2023-06-22T11:37:00.690Z,40.25
2023-06-22T11:38:00.664Z,39.84
2023-06-22T11:39:00.665Z,39.14
2023-06-22T11:40:07.265Z,38.93
2023-06-22T11:41:02.623Z,38.35
2023-06-22T11:42:00.649Z,38.64
2023-06-22T11:43:00.622Z,39.12
2023-06-22T11:44:00.603Z,38.93
2023-06-22T11:45:00.610Z,38.66
2023-06-22T11:46:00.591Z,39.04
2023-06-22T11:47:00.630Z,39.62
2023-06-22T11:48:00.617Z,40.03
2023-06-22T11:49:00.576Z,39.45
2023-06-22T11:50:00.550Z,38.87
2023-06-22T11:51:00.532Z,39.26
2023-06-22T11:52:00.558Z,38.87
2023-06-22T11:53:00.529Z,38.85
2023-06-22T11:54:00.520Z,38.35
2023-06-22T11:55:00.523Z,37.65
2023-06-22T11:56:00.493Z,37.55
2023-06-22T11:57:00.519Z,37.52
2023-06-22T11:58:00.491Z,38.00
2023-06-22T11:59:00.468Z,38.33
2023-06-22T12:00:00.471Z,39.72
2023-06-22T12:01:00.459Z,38.96
2023-06-22T12:02:00.457Z,39.55
2023-06-22T12:03:01.287Z,38.85
2023-06-22T12:04:01.436Z,39.03
2023-06-22T12:05:00.403Z,38.04
2023-06-22T12:06:00.459Z,37.75
2023-06-22T12:07:00.411Z,38.02
2023-06-22T12:08:00.389Z,37.96
2023-06-22T12:09:00.358Z,38.46
2023-06-22T12:10:00.382Z,38.85
2023-06-22T12:11:00.364Z,38.87
2023-06-22T12:12:00.333Z,40.11
2023-06-22T12:13:00.351Z,41.44
2023-06-22T12:14:00.316Z,41.93
2023-06-22T12:15:00.312Z,41.32
2023-06-22T12:16:00.328Z,41.49
2023-06-22T12:17:00.311Z,42.11
2023-06-22T12:18:00.324Z,41.83
2023-06-22T12:19:00.273Z,41.80
2023-06-22T12:20:00.295Z,41.03
2023-06-22T12:21:00.272Z,41.30
2023-06-22T12:22:00.259Z,41.20
2023-06-22T12:23:00.229Z,41.28
2023-06-22T12:24:00.225Z,39.78
2023-06-22T12:25:00.223Z,40.19
2023-06-22T12:26:00.222Z,40.05
2023-06-22T12:27:00.192Z,38.56
2023-06-22T12:28:00.204Z,38.23
2023-06-22T12:29:00.176Z,38.33
2023-06-22T12:30:01.177Z,38.45
2023-06-22T12:31:00.184Z,38.35
2023-06-22T12:32:00.159Z,38.17
2023-06-22T12:33:00.238Z,38.25
2023-06-22T12:34:00.137Z,38.25
2023-06-22T12:35:00.122Z,38.35
2023-06-22T12:36:00.118Z,37.54
2023-06-22T12:37:00.151Z,36.92
2023-06-22T12:38:00.113Z,37.19
2023-06-22T12:39:00.069Z,37.70
2023-06-22T12:40:00.060Z,38.31
2023-06-22T12:41:00.116Z,39.04
2023-06-22T12:42:00.079Z,39.76
2023-06-22T12:43:00.068Z,40.85
2023-06-22T12:44:00.102Z,41.98
2023-06-22T12:45:00.039Z,41.38
2023-06-22T12:46:00.005Z,41.26
2023-06-22T12:47:00.008Z,40.41
2023-06-22T12:48:00.066Z,40.89
2023-06-22T12:48:59.981Z,41.08
2023-06-22T12:50:00.038Z,40.48
2023-06-22T12:51:00.000Z,39.90
2023-06-22T12:51:59.986Z,39.88